Time;durP1;ratioP1;P1;durP2;ratioP2;P2;SDS_P1;SDS_P2;PMS_P1;PMS_P2;Temp;Humidity;BMP_temperature;BMP_pressure;BME280_temperature;BME280_humidity;BME280_pressure;Samples;Min_cycle;Max_cycle;Signal;HPM_P1;HPM_P2
2023/09/01 00:00:47;;;;;;;1.95;1.58;;;14.10;99.90;;;;;;5066350;28;20265;-72
2023/09/01 00:03:13;;;;;;;9.05;1.70;;;14.10;99.90;;;;;;5063713;28;20198;-72
2023/09/01 00:05:38;;;;;;;12.80;2.60;;;14.10;99.90;;;;;;5063575;28;20676;-71
2023/09/01 00:08:05;;;;;;;1.85;1.27;;;14.00;99.90;;;;;;5062397;28;20211;-72
2023/09/01 00:10:31;;;;;;;2.38;1.27;;;14.00;99.90;;;;;;5064874;28;20753;-72
2023/09/01 00:12:57;;;;;;;1.73;0.90;;;14.00;99.90;;;;;;5069678;28;20183;-71
2023/09/01 00:15:23;;;;;;;5.20;0.93;;;14.10;99.90;;;;;;5074023;28;20555;-72
2023/09/01 00:17:49;;;;;;;0.95;0.77;;;14.00;99.90;;;;;;5075303;28;20264;-71
2023/09/01 00:20:14;;;;;;;4.25;1.15;;;13.90;99.90;;;;;;5055180;28;20698;-72
2023/09/01 00:22:40;;;;;;;1.52;0.77;;;13.90;99.90;;;;;;5073472;28;20199;-72
2023/09/01 00:25:06;;;;;;;1.33;0.68;;;13.90;99.90;;;;;;5072303;28;20646;-71
2023/09/01 00:27:32;;;;;;;2.30;0.60;;;13.90;99.90;;;;;;5072242;28;20191;-72
2023/09/01 00:29:57;;;;;;;0.47;0.40;;;13.90;99.90;;;;;;5064445;28;20203;-72
2023/09/01 00:32:23;;;;;;;0.52;0.52;;;13.80;99.90;;;;;;5068112;28;20198;-69
2023/09/01 00:34:56;;;;;;;0.50;0.50;;;13.80;99.90;;;;;;5062929;28;20229;-71
2023/09/01 00:37:22;;;;;;;0.75;0.70;;;13.80;99.90;;;;;;5066063;28;20218;-72
2023/09/01 00:39:48;;;;;;;2.03;0.80;;;13.70;99.90;;;;;;5062540;28;20217;-71
2023/09/01 00:42:13;;;;;;;1.05;0.57;;;13.70;99.90;;;;;;5062288;28;20229;-72
2023/09/01 00:44:39;;;;;;;0.40;0.40;;;13.70;99.90;;;;;;5062204;28;20286;-73
2023/09/01 00:47:05;;;;;;;0.35;0.20;;;13.60;99.90;;;;;;5059914;28;20231;-71
2023/09/01 00:49:31;;;;;;;2.00;0.68;;;13.60;99.90;;;;;;5074013;28;20202;-73
2023/09/01 00:51:57;;;;;;;2.08;1.10;;;13.70;99.90;;;;;;5077371;28;20239;-71
2023/09/01 00:54:23;;;;;;;0.25;0.25;;;13.60;99.90;;;;;;5078775;28;20255;-71
2023/09/01 00:56:50;;;;;;;0.10;0.10;;;13.60;99.90;;;;;;5058488;28;20630;-70
2023/09/01 00:59:16;;;;;;;0.20;0.20;;;13.50;99.90;;;;;;5061508;28;20651;-72
2023/09/01 01:01:42;;;;;;;0.28;0.28;;;13.60;99.90;;;;;;5076310;28;20226;-72
2023/09/01 01:04:08;;;;;;;0.30;0.30;;;13.60;99.90;;;;;;5073142;28;20186;-72
2023/09/01 01:06:39;;;;;;;0.40;0.40;;;13.50;99.90;;;;;;5074587;28;20171;-72
2023/09/01 01:09:26;;;;;;;0.43;0.43;;;13.50;99.90;;;;;;5072190;28;20204;-72
2023/09/01 01:12:31;;;;;;;0.30;0.30;;;13.50;99.90;;;;;;5069069;28;20211;-72
2023/09/01 01:14:58;;;;;;;0.65;0.50;;;13.50;99.90;;;;;;5053353;28;20195;-69
2023/09/01 01:17:25;;;;;;;1.55;0.80;;;13.50;99.90;;;;;;5069330;28;20625;-72
2023/09/01 01:19:57;;;;;;;0.00;0.00;;;13.60;99.90;;;;;;5064313;28;20712;-71
2023/09/01 01:22:40;;;;;;;0.10;0.10;;;13.60;99.90;;;;;;5065644;28;20219;-73
2023/09/01 01:25:10;;;;;;;0.25;0.25;;;13.50;99.90;;;;;;5068473;28;20175;-73
2023/09/01 01:27:41;;;;;;;1.13;0.57;;;13.50;99.90;;;;;;5082683;28;20203;-72
2023/09/01 01:30:08;;;;;;;0.10;0.10;;;13.30;99.90;;;;;;5076222;28;20286;-73
2023/09/01 01:32:34;;;;;;;0.20;0.17;;;13.40;99.90;;;;;;5060708;28;20210;-73
2023/09/01 01:35:06;;;;;;;0.30;0.30;;;13.40;99.90;;;;;;5072933;28;20260;-72
2023/09/01 01:37:54;;;;;;;0.10;0.10;;;13.30;99.90;;;;;;5074845;28;20572;-71
2023/09/01 01:40:22;;;;;;;0.88;0.85;;;13.20;99.90;;;;;;5073789;28;20201;-73
2023/09/01 01:42:50;;;;;;;0.45;0.15;;;13.20;99.90;;;;;;5073613;28;20246;-71
2023/09/01 01:45:21;;;;;;;0.75;0.75;;;13.20;99.90;;;;;;5054766;28;20585;-72
2023/09/01 01:47:49;;;;;;;0.22;0.22;;;13.20;99.90;;;;;;5068862;28;20298;-71
2023/09/01 01:50:14;;;;;;;0.13;0.13;;;13.10;99.90;;;;;;5069232;28;20295;-72
2023/09/01 01:52:40;;;;;;;0.38;0.38;;;13.10;99.90;;;;;;5067560;28;20291;-72
2023/09/01 01:55:07;;;;;;;3.30;1.40;;;13.00;99.90;;;;;;5066748;28;20191;-73
2023/09/01 01:57:33;;;;;;;0.30;0.30;;;13.10;99.90;;;;;;5067049;28;20206;-72
2023/09/01 01:59:59;;;;;;;0.10;0.10;;;13.10;99.90;;;;;;5062138;28;20263;-72
2023/09/01 02:02:24;;;;;;;0.10;0.10;;;13.10;99.90;;;;;;5072946;28;20203;-71
2023/09/01 02:04:51;;;;;;;1.98;0.32;;;13.10;99.90;;;;;;5080161;28;20709;-72
2023/09/01 02:07:23;;;;;;;0.40;0.40;;;13.00;99.90;;;;;;5080001;28;20202;-72
2023/09/01 02:09:49;;;;;;;0.77;0.77;;;13.10;99.90;;;;;;5064992;28;20179;-73
2023/09/01 02:12:15;;;;;;;0.05;0.05;;;13.10;99.90;;;;;;5077593;28;20252;-72
2023/09/01 02:14:40;;;;;;;4.82;1.25;;;13.00;99.90;;;;;;5070518;28;20203;-72
2023/09/01 02:17:06;;;;;;;1.20;0.60;;;13.10;99.90;;;;;;5048404;28;20207;-74
2023/09/01 02:19:32;;;;;;;0.17;0.17;;;13.00;99.90;;;;;;5070430;28;20217;-73
2023/09/01 02:21:58;;;;;;;2.10;0.57;;;13.00;99.90;;;;;;5066263;28;20175;-73
2023/09/01 02:24:23;;;;;;;0.52;0.50;;;13.10;99.90;;;;;;5069042;28;20214;-73
2023/09/01 02:26:49;;;;;;;0.52;0.52;;;13.10;99.90;;;;;;5046773;28;20207;-72
2023/09/01 02:29:14;;;;;;;0.30;0.30;;;13.00;99.90;;;;;;5065380;28;20747;-72
2023/09/01 02:31:40;;;;;;;0.30;0.30;;;12.90;99.90;;;;;;5066028;28;20241;-73
2023/09/01 02:34:06;;;;;;;0.13;0.13;;;13.00;99.90;;;;;;5062680;28;20187;-73
2023/09/01 02:36:33;;;;;;;0.15;0.15;;;12.90;99.90;;;;;;5045686;28;20171;-73
2023/09/01 02:38:59;;;;;;;0.52;0.47;;;12.90;99.90;;;;;;5063657;28;20211;-72
2023/09/01 02:41:25;;;;;;;0.43;0.43;;;12.90;99.90;;;;;;5071018;28;20210;-72
2023/09/01 02:43:52;;;;;;;0.70;0.52;;;12.80;99.90;;;;;;5071113;28;20203;-71
2023/09/01 02:46:18;;;;;;;0.10;0.10;;;12.70;99.90;;;;;;5068642;28;20184;-72
2023/09/01 02:48:43;;;;;;;0.10;0.10;;;12.70;99.90;;;;;;5068189;28;20290;-73
2023/09/01 02:51:09;;;;;;;0.28;0.28;;;12.70;99.90;;;;;;5069883;28;20752;-72
2023/09/01 02:53:36;;;;;;;1.00;0.40;;;12.70;99.90;;;;;;5068538;28;20207;-71
2023/09/01 02:56:02;;;;;;;0.20;0.20;;;12.80;99.90;;;;;;5067106;28;20217;-73
2023/09/01 02:58:28;;;;;;;0.13;0.10;;;12.80;99.90;;;;;;5065859;28;20731;-72
2023/09/01 03:00:54;;;;;;;0.50;0.50;;;12.70;99.90;;;;;;5050402;28;20177;-72
2023/09/01 03:03:22;;;;;;;0.20;0.17;;;12.70;99.90;;;;;;5067330;28;20807;-71
2023/09/01 03:05:49;;;;;;;0.22;0.22;;;12.70;99.90;;;;;;5064658;28;20211;-72
2023/09/01 03:08:18;;;;;;;0.70;0.25;;;12.60;99.90;;;;;;5046180;28;20215;-71
2023/09/01 03:10:44;;;;;;;0.30;0.30;;;12.50;99.90;;;;;;5068410;28;20200;-72
2023/09/01 03:13:09;;;;;;;0.50;0.50;;;12.50;99.90;;;;;;5061046;28;20183;-72
2023/09/01 03:15:35;;;;;;;0.40;0.40;;;12.50;99.90;;;;;;5067502;28;20212;-72
2023/09/01 03:18:00;;;;;;;0.20;0.20;;;12.50;99.90;;;;;;5052688;28;20219;-72
2023/09/01 03:20:26;;;;;;;0.52;0.32;;;12.40;99.90;;;;;;5079067;28;20566;-73
2023/09/01 03:22:52;;;;;;;0.95;0.57;;;12.40;99.90;;;;;;5070278;28;20268;-70
2023/09/01 03:25:18;;;;;;;0.57;0.30;;;12.40;99.90;;;;;;5052334;28;20175;-70
2023/09/01 03:27:44;;;;;;;0.17;0.17;;;12.40;99.90;;;;;;5068777;28;20203;-71
2023/09/01 03:30:11;;;;;;;0.65;0.65;;;12.30;99.90;;;;;;5065638;28;20211;-69
2023/09/01 03:32:37;;;;;;;0.63;0.55;;;12.30;99.90;;;;;;5066475;28;20203;-70
2023/09/01 03:35:04;;;;;;;0.25;0.25;;;12.30;99.90;;;;;;5046951;28;20203;-70
2023/09/01 03:37:29;;;;;;;0.25;0.25;;;12.30;99.90;;;;;;5047848;28;20215;-71
2023/09/01 03:39:55;;;;;;;0.20;0.20;;;12.30;99.90;;;;;;5055482;28;20174;-71
2023/09/01 03:42:21;;;;;;;1.10;0.35;;;12.20;99.90;;;;;;5064432;28;20233;-71
2023/09/01 03:44:46;;;;;;;1.30;0.35;;;12.30;99.90;;;;;;5065090;28;20276;-71
2023/09/01 03:47:12;;;;;;;0.25;0.20;;;12.20;99.90;;;;;;5060449;28;20301;-70
2023/09/01 03:49:38;;;;;;;0.40;0.40;;;12.20;99.90;;;;;;5063506;28;20586;-71
2023/09/01 03:52:04;;;;;;;0.10;0.10;;;12.30;99.90;;;;;;5059119;28;20183;-69
2023/09/01 03:54:29;;;;;;;5.43;1.85;;;12.30;99.90;;;;;;5073863;28;20164;-70
2023/09/01 03:56:55;;;;;;;0.50;0.40;;;12.10;99.90;;;;;;5067648;28;20407;-71
2023/09/01 03:59:21;;;;;;;0.93;0.68;;;12.10;99.90;;;;;;5069581;28;20238;-70
2023/09/01 04:01:47;;;;;;;1.48;0.15;;;12.20;99.90;;;;;;5072854;28;20618;-70
2023/09/01 04:04:13;;;;;;;0.20;0.20;;;12.20;99.90;;;;;;5048444;28;20286;-67
2023/09/01 04:06:40;;;;;;;3.20;0.85;;;12.10;99.90;;;;;;5067475;28;20190;-70
2023/09/01 04:09:06;;;;;;;0.47;0.43;;;12.20;99.90;;;;;;5068097;28;20219;-70
2023/09/01 04:11:32;;;;;;;0.40;0.25;;;12.20;99.90;;;;;;5067248;28;20674;-70
2023/09/01 04:13:58;;;;;;;0.20;0.20;;;12.10;99.90;;;;;;5066882;28;20207;-70
2023/09/01 04:16:24;;;;;;;0.13;0.13;;;12.10;99.90;;;;;;5063825;28;20214;-70
2023/09/01 04:18:51;;;;;;;0.13;0.13;;;12.10;99.90;;;;;;5059299;28;20876;-70
2023/09/01 04:21:17;;;;;;;0.50;0.50;;;11.90;99.90;;;;;;5063075;28;20207;-71
2023/09/01 04:23:43;;;;;;;0.25;0.22;;;11.90;99.90;;;;;;5065030;28;20214;-71
2023/09/01 04:26:09;;;;;;;1.17;0.40;;;11.90;99.90;;;;;;5059927;28;20207;-72
2023/09/01 04:28:34;;;;;;;1.27;0.88;;;12.00;99.90;;;;;;5061069;28;20211;-70
2023/09/01 04:31:02;;;;;;;0.40;0.40;;;12.20;99.90;;;;;;5077259;28;20178;-68
2023/09/01 04:33:28;;;;;;;0.20;0.20;;;12.00;99.90;;;;;;5076423;28;20284;-70
2023/09/01 04:36:04;;;;;;;0.17;0.17;;;12.10;99.90;;;;;;5075046;28;20210;-71
2023/09/01 04:38:29;;;;;;;0.40;0.40;;;12.10;99.90;;;;;;5075154;28;20215;-70
2023/09/01 04:40:56;;;;;;;0.30;0.30;;;12.10;99.90;;;;;;5071064;28;20563;-71
2023/09/01 04:43:25;;;;;;;0.20;0.20;;;12.10;99.90;;;;;;5071312;28;20214;-71
2023/09/01 04:45:54;;;;;;;0.45;0.45;;;12.40;99.90;;;;;;5071792;28;20292;-69
2023/09/01 04:48:20;;;;;;;0.40;0.40;;;12.90;99.90;;;;;;5066072;28;20234;-70
2023/09/01 04:50:47;;;;;;;0.63;0.63;;;14.00;99.90;;;;;;5069780;28;20213;-70
2023/09/01 04:53:14;;;;;;;0.55;0.52;;;15.00;99.90;;;;;;5063530;28;20229;-69
2023/09/01 04:55:40;;;;;;;0.90;0.40;;;15.60;99.90;;;;;;5067668;28;20198;-70
2023/09/01 04:58:05;;;;;;;0.30;0.30;;;16.00;99.90;;;;;;5062393;28;20202;-71
2023/09/01 05:00:31;;;;;;;0.73;0.73;;;15.50;99.90;;;;;;5063828;28;20175;-70
2023/09/01 05:02:57;;;;;;;1.25;0.43;;;15.80;99.90;;;;;;5044148;28;20207;-71
2023/09/01 05:05:23;;;;;;;0.40;0.40;;;16.30;99.90;;;;;;5041898;28;20717;-70
2023/09/01 05:07:49;;;;;;;0.32;0.22;;;15.70;99.90;;;;;;5080447;28;20214;-68
2023/09/01 05:10:15;;;;;;;0.30;0.30;;;15.40;99.90;;;;;;5072544;28;20246;-70
2023/09/01 05:12:41;;;;;;;0.63;0.57;;;15.00;99.90;;;;;;5075140;28;20237;-71
2023/09/01 05:15:07;;;;;;;1.45;0.85;;;14.60;99.90;;;;;;5070360;28;20211;-70
2023/09/01 05:17:33;;;;;;;0.30;0.30;;;14.50;99.90;;;;;;5068151;28;20250;-70
2023/09/01 05:19:58;;;;;;;0.47;0.30;;;14.70;99.90;;;;;;5054018;28;20272;-70
2023/09/01 05:22:25;;;;;;;0.10;0.10;;;15.10;99.90;;;;;;5066730;28;20207;-71
2023/09/01 05:24:51;;;;;;;0.20;0.20;;;16.40;99.90;;;;;;5072266;28;20199;-70
2023/09/01 05:27:20;;;;;;;1.98;1.05;;;18.00;99.90;;;;;;5067179;28;20300;-71
2023/09/01 05:29:47;;;;;;;0.40;0.40;;;18.40;99.90;;;;;;5066054;28;20205;-71
2023/09/01 05:32:12;;;;;;;0.20;0.20;;;19.60;99.90;;;;;;5061852;28;20638;-71
2023/09/01 05:34:39;;;;;;;0.35;0.35;;;21.00;99.90;;;;;;5064608;28;20295;-72
2023/09/01 05:37:04;;;;;;;0.95;0.20;;;21.80;99.90;;;;;;5062046;28;20688;-71
2023/09/01 05:39:30;;;;;;;0.50;0.50;;;21.80;99.90;;;;;;5061376;28;20203;-72
2023/09/01 05:41:55;;;;;;;0.10;0.10;;;22.60;99.90;;;;;;5042634;28;20203;-72
2023/09/01 05:44:21;;;;;;;0.52;0.30;;;23.00;99.90;;;;;;5077704;28;20210;-69
2023/09/01 05:46:47;;;;;;;0.20;0.20;;;23.50;99.90;;;;;;5079053;28;20242;-71
2023/09/01 05:49:12;;;;;;;0.10;0.10;;;24.10;99.90;;;;;;5079163;28;20225;-72
2023/09/01 05:51:38;;;;;;;2.83;0.22;;;23.60;99.90;;;;;;5073351;28;20557;-72
2023/09/01 05:54:03;;;;;;;3.22;1.00;;;24.00;99.90;;;;;;5076809;28;20248;-72
2023/09/01 05:56:29;;;;;;;0.45;0.43;;;23.90;99.90;;;;;;5075945;28;20257;-71
2023/09/01 05:58:55;;;;;;;0.80;0.40;;;24.30;99.90;;;;;;5073776;28;20238;-70
2023/09/01 06:01:20;;;;;;;0.10;0.10;;;24.90;99.90;;;;;;5070797;28;20697;-72
2023/09/01 06:03:46;;;;;;;0.25;0.25;;;25.40;99.90;;;;;;5054309;28;20737;-72
2023/09/01 06:06:11;;;;;;;0.93;0.47;;;24.50;99.90;;;;;;5069191;28;20298;-73
2023/09/01 06:08:37;;;;;;;0.77;0.63;;;24.90;99.90;;;;;;5068025;28;20219;-72
2023/09/01 06:11:04;;;;;;;0.50;0.40;;;25.50;99.90;;;;;;5068171;28;20256;-72
2023/09/01 06:13:30;;;;;;;0.25;0.25;;;26.20;99.90;;;;;;5064435;28;20251;-70
2023/09/01 06:15:55;;;;;;;1.08;0.85;;;25.90;99.90;;;;;;5056376;28;20750;-73
2023/09/01 06:18:21;;;;;;;0.30;0.30;;;26.00;99.90;;;;;;5065652;28;20223;-73
2023/09/01 06:20:46;;;;;;;0.25;0.25;;;25.80;99.90;;;;;;5069918;28;20225;-72
2023/09/01 06:23:12;;;;;;;0.40;0.40;;;25.30;99.90;;;;;;5062213;28;20213;-72
2023/09/01 06:25:38;;;;;;;0.30;0.30;;;25.80;99.90;;;;;;5070259;28;20580;-71
2023/09/01 06:28:03;;;;;;;0.25;0.25;;;25.80;99.90;;;;;;5074621;28;20205;-72
2023/09/01 06:30:29;;;;;;;0.55;0.45;;;25.60;99.90;;;;;;5073793;28;20190;-72
2023/09/01 06:32:55;;;;;;;0.32;0.32;;;26.70;99.90;;;;;;5053584;28;20206;-70
2023/09/01 06:35:20;;;;;;;0.43;0.43;;;26.70;99.90;;;;;;5070687;28;20774;-73
2023/09/01 06:37:46;;;;;;;0.50;0.50;;;26.40;99.90;;;;;;5056085;28;20591;-73
2023/09/01 06:40:11;;;;;;;0.65;0.65;;;26.40;99.90;;;;;;5053981;28;20206;-73
2023/09/01 06:42:37;;;;;;;0.32;0.30;;;27.10;99.90;;;;;;5069933;28;20180;-72
2023/09/01 06:45:03;;;;;;;0.28;0.28;;;27.60;99.90;;;;;;5069173;28;20908;-71
2023/09/01 06:47:29;;;;;;;15.85;2.15;;;27.20;99.90;;;;;;5071105;28;20306;-72
2023/09/01 06:49:54;;;;;;;0.43;0.43;;;27.10;99.90;;;;;;5061879;28;20293;-72
2023/09/01 06:52:20;;;;;;;0.60;0.30;;;27.40;99.90;;;;;;5059486;28;20303;-70
2023/09/01 06:54:47;;;;;;;0.38;0.38;;;27.40;99.90;;;;;;5058127;28;20211;-70
2023/09/01 06:57:12;;;;;;;0.50;0.50;;;28.00;99.90;;;;;;5052321;28;20215;-69
2023/09/01 06:59:38;;;;;;;0.47;0.47;;;28.40;99.90;;;;;;5056347;28;20229;-72
2023/09/01 07:02:04;;;;;;;0.32;0.32;;;28.50;99.90;;;;;;5055813;28;20203;-72
2023/09/01 07:04:29;;;;;;;0.68;0.50;;;28.90;99.90;;;;;;5045230;28;20242;-69
2023/09/01 07:06:55;;;;;;;0.52;0.45;;;28.80;99.90;;;;;;5042637;28;20198;-72
2023/09/01 07:09:20;;;;;;;0.40;0.40;;;29.70;99.80;;;;;;5058612;28;20301;-71
2023/09/01 07:11:46;;;;;;;0.38;0.38;;;29.30;99.10;;;;;;5059519;28;20219;-72
2023/09/01 07:14:12;;;;;;;1.13;0.73;;;29.70;99.00;;;;;;5057710;28;20598;-71
2023/09/01 07:16:37;;;;;;;0.40;0.40;;;30.00;97.40;;;;;;5059191;28;20215;-72
2023/09/01 07:19:03;;;;;;;0.47;0.47;;;30.20;96.90;;;;;;5060383;28;20241;-71
2023/09/01 07:21:28;;;;;;;0.65;0.63;;;30.50;96.40;;;;;;5042911;28;20694;-70
2023/09/01 07:23:54;;;;;;;0.77;0.60;;;30.80;95.40;;;;;;5059997;28;20267;-70
2023/09/01 07:26:19;;;;;;;0.55;0.50;;;30.30;95.50;;;;;;5053988;28;20211;-71
2023/09/01 07:28:45;;;;;;;0.52;0.52;;;30.60;95.00;;;;;;5054611;28;20202;-72
2023/09/01 07:31:12;;;;;;;0.55;0.55;;;30.50;94.80;;;;;;5057065;28;20566;-69
2023/09/01 07:33:41;;;;;;;0.30;0.30;;;29.90;95.30;;;;;;5055552;28;20187;-70
2023/09/01 07:36:12;;;;;;;0.65;0.65;;;29.60;95.60;;;;;;5054887;28;20217;-72
2023/09/01 07:38:38;;;;;;;0.38;0.38;;;29.30;96.20;;;;;;5056987;28;20218;-71
2023/09/01 07:41:03;;;;;;;0.50;0.50;;;29.40;95.60;;;;;;5062393;28;20305;-71
2023/09/01 07:43:30;;;;;;;0.93;0.52;;;29.90;95.60;;;;;;5057623;28;20212;-72
2023/09/01 07:45:56;;;;;;;0.30;0.30;;;29.40;96.10;;;;;;5057735;28;20170;-72
2023/09/01 07:48:21;;;;;;;0.25;0.25;;;30.00;95.70;;;;;;5055650;28;20404;-71
2023/09/01 07:50:48;;;;;;;0.60;0.50;;;29.80;95.60;;;;;;5056681;28;20231;-70
2023/09/01 07:53:14;;;;;;;0.50;0.50;;;30.30;95.20;;;;;;5059948;28;20768;-71
2023/09/01 07:55:39;;;;;;;0.95;0.90;;;30.20;94.40;;;;;;5049258;28;20310;-70
2023/09/01 07:58:05;;;;;;;0.35;0.35;;;30.60;94.20;;;;;;5057464;28;20589;-72
2023/09/01 08:00:31;;;;;;;0.90;0.80;;;30.30;94.40;;;;;;5058909;28;20813;-69
2023/09/01 08:02:56;;;;;;;0.43;0.43;;;30.20;94.40;;;;;;5056761;28;20201;-71
2023/09/01 08:05:23;;;;;;;1.02;0.85;;;30.30;94.40;;;;;;5052752;28;20205;-70
2023/09/01 08:07:51;;;;;;;1.02;0.90;;;30.40;94.50;;;;;;5052533;28;20396;-69
2023/09/01 08:10:17;;;;;;;1.55;1.08;;;30.40;94.10;;;;;;5061031;28;20190;-70
2023/09/01 08:12:43;;;;;;;0.95;0.70;;;30.50;93.80;;;;;;5064030;28;20175;-69
2023/09/01 08:15:09;;;;;;;1.10;0.90;;;30.20;94.20;;;;;;5055723;28;20221;-70
2023/09/01 08:17:35;;;;;;;1.15;0.50;;;30.50;93.80;;;;;;5053356;28;20215;-70
2023/09/01 08:20:03;;;;;;;0.45;0.40;;;29.60;94.60;;;;;;5051351;28;20273;-68
2023/09/01 08:22:32;;;;;;;1.45;0.60;;;29.60;95.20;;;;;;5051686;28;20214;-71
2023/09/01 08:24:58;;;;;;;0.63;0.60;;;29.60;95.30;;;;;;5050256;28;20241;-69
2023/09/01 08:27:26;;;;;;;0.35;0.35;;;29.40;95.30;;;;;;5051151;28;20211;-70
2023/09/01 08:29:51;;;;;;;0.45;0.45;;;29.50;94.90;;;;;;5054343;28;20722;-70
2023/09/01 08:32:17;;;;;;;0.60;0.28;;;29.80;94.70;;;;;;5051460;28;20245;-70
2023/09/01 08:34:43;;;;;;;0.35;0.35;;;28.90;95.30;;;;;;5034633;28;20211;-69
2023/09/01 08:37:10;;;;;;;2.28;0.73;;;29.30;95.60;;;;;;5053837;28;20198;-70
2023/09/01 08:39:36;;;;;;;15.05;0.68;;;29.40;94.80;;;;;;5055972;28;20198;-70
2023/09/01 08:42:02;;;;;;;0.60;0.50;;;29.40;95.00;;;;;;5051489;28;20585;-69
2023/09/01 08:44:30;;;;;;;0.28;0.28;;;29.40;95.00;;;;;;5056319;28;20207;-67
2023/09/01 08:46:57;;;;;;;3.80;0.38;;;29.40;94.70;;;;;;5023107;28;1082854;-67
2023/09/01 08:49:27;;;;;;;0.43;0.40;;;29.00;95.00;;;;;;5054735;28;20721;-68
2023/09/01 08:51:55;;;;;;;9.85;0.85;;;28.40;95.70;;;;;;5058749;28;20179;-69
2023/09/01 08:54:20;;;;;;;0.30;0.30;;;28.30;96.10;;;;;;5059437;28;20333;-69
2023/09/01 08:56:47;;;;;;;0.65;0.50;;;28.40;96.50;;;;;;5055394;28;20302;-69
2023/09/01 08:59:13;;;;;;;0.93;0.77;;;28.60;95.80;;;;;;5057864;28;20635;-70
2023/09/01 09:01:39;;;;;;;0.40;0.40;;;28.40;95.50;;;;;;5046373;28;20215;-70
2023/09/01 09:04:06;;;;;;;0.35;0.35;;;28.00;96.20;;;;;;5058218;28;20212;-69
2023/09/01 09:06:41;;;;;;;0.32;0.30;;;27.70;96.30;;;;;;5054161;28;20250;-69
2023/09/01 09:09:11;;;;;;;0.20;0.20;;;27.30;96.40;;;;;;5056872;28;20242;-69
2023/09/01 09:11:38;;;;;;;0.25;0.25;;;26.50;97.10;;;;;;5057230;28;20581;-71
2023/09/01 09:14:04;;;;;;;0.70;0.65;;;26.20;97.80;;;;;;5043952;28;20230;-71
2023/09/01 09:16:30;;;;;;;0.68;0.40;;;26.40;98.60;;;;;;5055549;28;20689;-71
2023/09/01 09:18:55;;;;;;;0.55;0.40;;;26.20;98.20;;;;;;5060056;28;20207;-70
2023/09/01 09:21:26;;;;;;;0.28;0.28;;;25.90;99.20;;;;;;5060346;28;20208;-72
2023/09/01 09:23:53;;;;;;;0.25;0.25;;;26.00;99.80;;;;;;5058442;28;20204;-70
2023/09/01 09:26:32;;;;;;;0.10;0.10;;;25.90;98.80;;;;;;5063191;28;20728;-71
2023/09/01 09:29:06;;;;;;;0.88;0.73;;;25.80;98.90;;;;;;5061304;28;20219;-71
2023/09/01 09:31:37;;;;;;;4.22;1.48;;;25.60;99.70;;;;;;5059429;28;20678;-69
2023/09/01 09:34:24;;;;;;;0.17;0.17;;;25.60;99.70;;;;;;5054502;28;20191;-71
2023/09/01 09:36:50;;;;;;;0.52;0.50;;;25.70;99.90;;;;;;5063064;28;20226;-72
2023/09/01 09:39:27;;;;;;;1.58;0.82;;;25.80;99.90;;;;;;5060648;28;20214;-71
2023/09/01 09:41:54;;;;;;;0.52;0.52;;;25.80;99.90;;;;;;5064681;28;20206;-71
2023/09/01 09:44:33;;;;;;;0.30;0.30;;;25.80;99.90;;;;;;5059282;28;20204;-71
2023/09/01 09:47:00;;;;;;;0.10;0.10;;;25.50;99.90;;;;;;5061012;28;20214;-69
2023/09/01 09:49:30;;;;;;;1.15;0.70;;;25.20;99.90;;;;;;5059472;28;20219;-70
2023/09/01 09:51:59;;;;;;;1.17;0.98;;;25.10;99.90;;;;;;5061355;28;20217;-69
2023/09/01 09:54:28;;;;;;;1.15;0.80;;;24.90;99.90;;;;;;5056330;28;20199;-69
2023/09/01 09:56:56;;;;;;;0.30;0.20;;;25.10;99.90;;;;;;5058903;28;20214;-69
2023/09/01 09:59:42;;;;;;;0.93;0.45;;;25.10;99.90;;;;;;5056825;28;20735;-70
2023/09/01 10:02:20;;;;;;;0.30;0.30;;;24.80;99.90;;;;;;5059788;28;20290;-70
2023/09/01 10:04:47;;;;;;;1.52;0.98;;;24.80;99.90;;;;;;5055124;28;20207;-69
2023/09/01 10:07:13;;;;;;;0.28;0.28;;;25.10;99.90;;;;;;5060377;28;20203;-68
2023/09/01 10:09:40;;;;;;;1.35;0.88;;;25.20;99.90;;;;;;5059046;28;20180;-70
2023/09/01 10:12:06;;;;;;;1.75;0.95;;;25.10;99.90;;;;;;5057264;28;20712;-74
2023/09/01 10:14:37;;;;;;;1.45;0.80;;;24.20;99.90;;;;;;5058112;28;20209;-70
2023/09/01 10:17:04;;;;;;;1.38;0.85;;;23.90;99.90;;;;;;5057844;28;20234;-70
2023/09/01 10:19:30;;;;;;;4.07;1.38;;;23.60;99.90;;;;;;5059734;28;20219;-71
2023/09/01 10:21:56;;;;;;;0.15;0.15;;;23.70;99.90;;;;;;5063605;28;20186;-71
2023/09/01 10:24:22;;;;;;;0.77;0.50;;;24.00;99.90;;;;;;5063630;28;20212;-71
2023/09/01 10:27:08;;;;;;;0.30;0.30;;;24.30;99.90;;;;;;5042552;28;20211;-70
2023/09/01 10:29:34;;;;;;;0.60;0.60;;;24.40;99.90;;;;;;5065450;28;20265;-71
2023/09/01 10:32:17;;;;;;;1.05;0.63;;;24.30;99.90;;;;;;5045990;28;20234;-69
2023/09/01 10:34:53;;;;;;;0.22;0.22;;;24.00;99.90;;;;;;5051683;28;20217;-70
2023/09/01 10:37:33;;;;;;;0.10;0.10;;;23.70;99.90;;;;;;5058875;28;20202;-71
2023/09/01 10:39:58;;;;;;;1.30;0.50;;;23.50;99.90;;;;;;5063944;28;20187;-70
2023/09/01 10:42:40;;;;;;;0.60;0.50;;;23.90;99.90;;;;;;5065695;28;20203;-70
2023/09/01 10:45:06;;;;;;;0.50;0.43;;;23.80;99.90;;;;;;5065607;28;20588;-70
2023/09/01 10:47:31;;;;;;;0.30;0.30;;;23.70;99.90;;;;;;5061764;28;20294;-71
2023/09/01 10:50:02;;;;;;;0.43;0.38;;;23.70;99.90;;;;;;5065107;28;20207;-69
2023/09/01 10:52:28;;;;;;;5.47;0.90;;;23.50;99.90;;;;;;5063117;28;20218;-69
2023/09/01 10:55:12;;;;;;;0.43;0.43;;;23.30;99.90;;;;;;5062547;28;20176;-70
2023/09/01 10:57:51;;;;;;;0.40;0.40;;;23.20;99.90;;;;;;5062711;28;20207;-70
2023/09/01 11:00:34;;;;;;;1.40;0.30;;;23.20;99.90;;;;;;5051104;28;20206;-72
2023/09/01 11:03:32;;;;;;;0.22;0.22;;;23.30;99.90;;;;;;5058890;28;20705;-71
2023/09/01 11:06:03;;;;;;;0.30;0.30;;;23.00;99.90;;;;;;5059525;28;20215;-70
2023/09/01 11:08:30;;;;;;;1.05;0.60;;;23.00;99.90;;;;;;5066523;28;20229;-71
2023/09/01 11:11:06;;;;;;;2.13;1.48;;;23.40;99.90;;;;;;5063722;28;20721;-70
2023/09/01 11:13:31;;;;;;;0.30;0.30;;;23.60;99.90;;;;;;5063492;28;20210;-71
2023/09/01 11:15:57;;;;;;;0.30;0.30;;;23.80;99.90;;;;;;5064339;28;20183;-71
2023/09/01 11:18:24;;;;;;;0.80;0.60;;;23.50;99.90;;;;;;5064149;28;20246;-71
2023/09/01 11:20:55;;;;;;;0.30;0.30;;;23.50;99.90;;;;;;5060380;28;20690;-72
2023/09/01 11:23:22;;;;;;;0.95;0.90;;;23.40;99.90;;;;;;5065011;28;20218;-73
2023/09/01 11:25:57;;;;;;;0.50;0.43;;;23.50;99.90;;;;;;5047330;28;20288;-72
2023/09/01 11:28:27;;;;;;;0.82;0.55;;;23.40;99.90;;;;;;5057842;28;20222;-71
2023/09/01 11:30:53;;;;;;;0.30;0.28;;;23.60;99.90;;;;;;5062977;28;20246;-70
2023/09/01 11:33:21;;;;;;;0.70;0.55;;;23.60;99.90;;;;;;5062925;28;20215;-72
2023/09/01 11:35:47;;;;;;;0.55;0.55;;;23.80;99.90;;;;;;5059271;28;20226;-71
2023/09/01 11:38:20;;;;;;;0.20;0.20;;;23.50;99.90;;;;;;5061860;28;20587;-71
2023/09/01 11:40:48;;;;;;;0.47;0.47;;;23.60;99.90;;;;;;5060785;28;20215;-71
2023/09/01 11:43:14;;;;;;;3.17;0.43;;;23.40;99.90;;;;;;5055007;28;20187;-70
2023/09/01 11:45:47;;;;;;;0.20;0.20;;;23.40;99.90;;;;;;5061496;28;20171;-72
2023/09/01 11:48:14;;;;;;;1.10;0.20;;;23.60;99.90;;;;;;5065374;28;20222;-73
2023/09/01 11:50:45;;;;;;;0.85;0.40;;;23.70;99.90;;;;;;5065232;28;20588;-73
2023/09/01 11:53:27;;;;;;;0.30;0.30;;;23.80;99.90;;;;;;5050899;28;20317;-74
2023/09/01 11:56:01;;;;;;;2.40;0.68;;;24.10;99.90;;;;;;5059371;28;20249;-71
2023/09/01 11:58:32;;;;;;;0.43;0.43;;;24.60;99.90;;;;;;5060390;28;20736;-72
2023/09/01 12:01:11;;;;;;;0.20;0.20;;;24.70;99.90;;;;;;5057959;28;20180;-70
2023/09/01 12:03:39;;;;;;;1.40;0.73;;;24.50;99.90;;;;;;5065764;28;20222;-72
2023/09/01 12:06:15;;;;;;;0.35;0.30;;;24.40;99.90;;;;;;5060594;28;20256;-71
2023/09/01 12:08:41;;;;;;;0.47;0.47;;;24.30;99.90;;;;;;5040372;28;20211;-72
2023/09/01 12:11:07;;;;;;;1.33;0.70;;;24.40;99.90;;;;;;5059288;28;20765;-71
2023/09/01 12:13:33;;;;;;;0.95;0.90;;;24.10;99.90;;;;;;5059985;28;20704;-72
2023/09/01 12:16:01;;;;;;;0.47;0.47;;;24.30;99.90;;;;;;5058572;28;20221;-72
2023/09/01 12:18:30;;;;;;;0.65;0.63;;;24.30;99.90;;;;;;5060854;28;20289;-73
2023/09/01 12:20:56;;;;;;;0.63;0.63;;;24.40;99.90;;;;;;5061888;28;20218;-72
2023/09/01 12:23:30;;;;;;;2.55;0.60;;;24.60;99.90;;;;;;5055404;28;20256;-71
2023/09/01 12:25:57;;;;;;;0.38;0.35;;;24.70;99.90;;;;;;5060845;28;20206;-71
2023/09/01 12:28:25;;;;;;;0.25;0.25;;;24.70;99.90;;;;;;5060615;28;20719;-72
2023/09/01 12:30:51;;;;;;;0.70;0.70;;;25.00;99.90;;;;;;5062516;28;20179;-72
2023/09/01 12:33:17;;;;;;;0.30;0.30;;;25.10;99.90;;;;;;5061528;28;20203;-72
2023/09/01 12:35:42;;;;;;;1.35;0.63;;;25.10;99.90;;;;;;5066061;28;20219;-72
2023/09/01 12:38:08;;;;;;;0.20;0.20;;;25.10;99.90;;;;;;5061622;28;20211;-72
2023/09/01 12:40:34;;;;;;;0.20;0.20;;;24.70;99.90;;;;;;5060379;28;20228;-72
2023/09/01 12:43:01;;;;;;;0.30;0.30;;;24.30;99.90;;;;;;5062855;28;20183;-71
2023/09/01 12:45:26;;;;;;;0.65;0.20;;;24.20;99.90;;;;;;5062194;28;20298;-71
2023/09/01 12:47:52;;;;;;;1.63;0.55;;;24.10;99.90;;;;;;5059145;28;20684;-71